Terminal Aerodrome Forecast
Issued by NWS

Home | Current Version | Previous Version | Text Only | Print | Product List | Glossary On
Versions: 1 2 3 4 5 6 7 8 9 10 11 12 13 14
401
FTUS45 KVEF 260520
TAFDAG
TAF
KDAG 260520Z 2606/2706 21018G28KT P6SM SKC
     FM260700 27008KT P6SM SKC
     FM261600 32006KT P6SM SKC
     FM261900 07010KT P6SM FEW120
     FM270000 23010G20KT P6SM FEW120
     FM270500 27008KT P6SM SKC=

USA.gov is the U.S. government's official web portal to all federal, state and local government web resources and services.